ADDS METAR Data INFO
IDs: Format: Raw Decoded Include TAF

Data at: 0646 UTC 23 Feb 2018

KSAZ 230635Z AUTO 00000KT 1 1/4SM -SN SCT009 BKN020 OVC024 M07/M08 A3014 RMK AO2 P0003
KSAZ 230615Z AUTO 08003KT 1 1/4SM -SN BKN007 BKN019 OVC023 M07/M08 A3016 RMK AO2 P0002
KSAZ 230555Z AUTO 00000KT 1SM SN OVC005 M07/M08 A3017 RMK AO2 P0002
KSAZ 230535Z AUTO 00000KT 1SM SN BKN007 OVC018 M07/M08 A3019 RMK AO2 P0001
KSAZ 230515Z AUTO 05003KT 2SM UP BKN032 BKN039 OVC047 M07/M08 A3019 RMK AO2
KSAZ 230455Z AUTO 00000KT 1 1/4SM -SN SCT013 BKN031 OVC035 M07/M08 A3021 RMK AO2 P0002
KSAZ 230435Z AUTO 00000KT 1SM SN BKN004 OVC009 M08/M08 A3022 RMK AO2 P0002
KSAZ 230415Z AUTO 07003KT 3/4SM SN OVC004 M08/M08 A3023 RMK AO2 P0001
KSAZ 230355Z AUTO 08003KT 3/4SM SN OVC004 M08/M08 A3024 RMK AO2 P0007
KSAZ 230335Z AUTO 08003KT 3/4SM SN OVC002 M08/M08 A3024 RMK AO2 P0005
KSAZ 230315Z AUTO 09003KT 3/4SM SN OVC002 M08/M08 A3025 RMK AO2 P0002
KSAZ 230255Z AUTO 08003KT 1/4SM +SN OVC002 M08/M08 A3026 RMK AO2 P0001
KSAZ 230235Z AUTO 09004KT 1/2SM +SN OVC004 M07/M08 A3027 RMK AO2
KSAZ 230215Z AUTO 08004KT 1SM SN OVC004 M07/M08 A3027 RMK AO2
KSAZ 230155Z AUTO 10006KT 1 1/4SM UP BKN006 OVC009 M07/M08 A3028 RMK AO2
KSAZ 230135Z AUTO 09003KT 1 1/2SM UP SCT011 OVC017 M07/M09 A3029 RMK AO2
KSAZ 230115Z AUTO 09005KT 2SM UP BKN017 OVC024 M07/M09 A3029 RMK AO2
KSAZ 230055Z AUTO 08003KT 3SM -SN BKN022 OVC029 M07/M09 A3030 RMK AO2
KSAZ 230035Z AUTO 10004KT 2 1/2SM -SN BKN026 BKN030 OVC038 M07/M09 A3033 RMK AO2
KSAZ 230015Z AUTO 10004KT 3SM UP BKN029 OVC034 M07/M09 A3033 RMK AO2
KSAZ 222355Z AUTO 11005KT 2SM UP BKN018 OVC029 M07/M11 A3034 RMK AO2 VIS 1 1/2V3
KSAZ 222335Z AUTO 11004KT 10SM SCT020 BKN043 OVC060 M06/M13 A3034 RMK AO2
KSAZ 222315Z AUTO 10005KT 10SM SCT042 OVC060 M06/M13 A3034 RMK AO2
KSAZ 222255Z AUTO 00000KT 10SM BKN060 OVC070 M06/M13 A3035 RMK AO2
KSAZ 222235Z AUTO 13003KT 10SM SCT030 OVC060 M06/M14 A3037 RMK AO2
KSAZ 222215Z AUTO 12004KT 10SM BKN030 OVC060 M05/M14 A3037 RMK AO2
KSAZ 222155Z AUTO 14005KT 10SM SCT030 BKN045 OVC055 M06/M14 A3037 RMK AO2
KSAZ 222135Z AUTO 14003KT 10SM BKN034 OVC045 M05/M14 A3038 RMK AO2
KSAZ 222115Z AUTO 00000KT 10SM OVC032 M05/M14 A3039 RMK AO2
KSAZ 222055Z AUTO 00000KT 10SM OVC034 M05/M15 A3039 RMK AO2
KSAZ 222035Z AUTO 16003KT 10SM OVC036 M06/M15 A3040 RMK AO2
KSAZ 222015Z AUTO 17006KT 10SM OVC038 M06/M15 A3041 RMK AO2
KSAZ 221955Z AUTO 17006KT 10SM BKN040 OVC050 M06/M15 A3041 RMK AO2
KSAZ 221935Z AUTO 18005KT 10SM BKN044 OVC050 M06/M16 A3042 RMK AO2
KSAZ 221915Z AUTO 18007KT 10SM BKN048 OVC060 M06/M16 A3043 RMK AO2
KSAZ 221855Z AUTO 17009KT 10SM OVC050 M06/M16 A3044 RMK AO2
KSAZ 221835Z AUTO 14007KT 113V173 10SM BKN050 OVC065 M06/M17 A3045 RMK AO2
KSAZ 221815Z AUTO 17008KT 10SM SCT060 OVC075 M06/M17 A3047 RMK AO2
KSAZ 221755Z AUTO 16006KT 10SM SCT060 OVC075 M07/M17 A3047 RMK AO2
KSAZ 221735Z AUTO 17010KT 10SM SCT060 OVC075 M08/M17 A3048 RMK AO2
KSAZ 221715Z AUTO 16006KT 10SM OVC075 M08/M17 A3050 RMK AO2
KSAZ 221655Z AUTO 17009KT 10SM BKN075 M09/M17 A3050 RMK AO2
KSAZ 221635Z AUTO 17010KT 10SM CLR M09/M17 A3050 RMK AO2
KSAZ 221615Z AUTO 16010KT 10SM CLR M10/M17 A3050 RMK AO2
KSAZ 221555Z AUTO 15005KT 10SM CLR M11/M16 A3050 RMK AO2
KSAZ 221536Z AUTO 15005KT 10SM CLR M13/M17 A3050 RMK AO2
KSAZ 221515Z AUTO 16003KT 10SM CLR M15/M18 A3051 RMK AO2
KSAZ 221455Z AUTO 14005KT 10SM CLR M16/M19 A3050 RMK AO2
KSAZ 221435Z AUTO 14005KT 10SM CLR M17/M19 A3050 RMK AO2
KSAZ 221415Z AUTO 00000KT 10SM CLR M18/M20 A3050 RMK AO2
KSAZ 221355Z AUTO 10004KT 10SM CLR M20/M22 A3050 RMK AO2
KSAZ 221335Z AUTO 11005KT 10SM CLR M22/M23 A3051 RMK AO2
KSAZ 221315Z AUTO 00000KT 10SM CLR M22/M24 A3052 RMK AO2
KSAZ 221255Z AUTO 14003KT 10SM CLR M22/M24 A3052 RMK AO2
KSAZ 221235Z AUTO 14003KT 10SM CLR M22/M24 A3052 RMK AO2
KSAZ 221215Z AUTO 00000KT 10SM CLR M23/M26 A3053 RMK AO2
KSAZ 221155Z AUTO 00000KT 10SM CLR M24/M27 A3053 RMK AO2
KSAZ 221135Z AUTO 00000KT 10SM CLR M23/M26 A3053 RMK AO2
KSAZ 221115Z AUTO 00000KT 10SM CLR M23/M25 A3053 RMK AO2
KSAZ 221055Z AUTO 00000KT 10SM CLR M23/M26 A3053 RMK AO2
KSAZ 221035Z AUTO 00000KT 10SM CLR M22/M24 A3053 RMK AO2
KSAZ 221015Z AUTO 00000KT 10SM CLR M23/M26 A3052 RMK AO2
KSAZ 220955Z AUTO 00000KT 10SM CLR M23/M26 A3052 RMK AO2
KSAZ 220935Z AUTO 00000KT 10SM CLR M22/M24 A3052 RMK AO2
KSAZ 220915Z AUTO 00000KT 10SM CLR M23/M26 A3053 RMK AO2
KSAZ 220855Z AUTO 00000KT 10SM CLR M23/M24 A3053 RMK AO2
KSAZ 220835Z AUTO 00000KT 10SM CLR M22/M24 A3054 RMK AO2
KSAZ 220815Z AUTO 00000KT 10SM CLR M22/M24 A3054 RMK AO2
KSAZ 220755Z AUTO 00000KT 10SM CLR M22/M24 A3054 RMK AO2
KSAZ 220735Z AUTO 00000KT 10SM CLR M23/M24 A3054 RMK AO2
KSAZ 220715Z AUTO 00000KT 10SM CLR M21/M23 A3055 RMK AO2
KSAZ 220655Z AUTO 00000KT 10SM CLR M22/M25 A3055 RMK AO2
KSAZ 220635Z AUTO 00000KT 10SM CLR M21/M23 A3056 RMK AO2
KSAZ 220615Z AUTO 00000KT 10SM CLR M21/M23 A3056 RMK AO2
KSAZ 220555Z AUTO 00000KT 10SM CLR M20/M23 A3056 RMK AO2
KSAZ 220535Z AUTO 18003KT 10SM CLR M18/M21 A3056 RMK AO2
KSAZ 220515Z AUTO 17004KT 10SM CLR M20/M23 A3057 RMK AO2
KSAZ 220455Z AUTO 00000KT 10SM CLR M21/M23 A3057 RMK AO2
KSAZ 220435Z AUTO 16003KT 10SM CLR M18/M22 A3057 RMK AO2
KSAZ 220415Z AUTO 00000KT 10SM CLR M17/M21 A3057 RMK AO2
KSAZ 220355Z AUTO 00000KT 10SM CLR M18/M22 A3057 RMK AO2
KSAZ 220035Z AUTO 00000KT 10SM CLR M12/M20 A3055 RMK AO2
KSAZ 220016Z AUTO 21003KT 10SM CLR M12/M22 A3054 RMK AO2
KSAZ 212355Z AUTO 00000KT 10SM CLR M11/M21 A3054 RMK AO2
KSAZ 212335Z AUTO 24004KT 10SM CLR M09/M21 A3054 RMK AO2
KSAZ 212315Z AUTO 24003KT 10SM CLR M09/M21 A3054 RMK AO2
KSAZ 212255Z AUTO 23004KT 10SM CLR M08/M20 A3054 RMK AO2
KSAZ 212235Z AUTO 22006KT 10SM CLR M08/M19 A3054 RMK AO2
KSAZ 212215Z AUTO 21005KT 10SM CLR M07/M19 A3053 RMK AO2
KSAZ 212155Z AUTO 25007KT 10SM CLR M07/M19 A3053 RMK AO2
KSAZ 212135Z AUTO 22005KT 10SM CLR M07/M19 A3053 RMK AO2
KSAZ 212115Z AUTO 22008KT 10SM CLR M07/M19 A3053 RMK AO2
KSAZ 212055Z AUTO 23005KT 10SM CLR M07/M18 A3053 RMK AO2
KSAZ 212035Z AUTO 22005KT 10SM CLR M07/M18 A3053 RMK AO2
KSAZ 212015Z AUTO 25006KT 10SM CLR M07/M19 A3052 RMK AO2
KSAZ 211955Z AUTO 23003KT 10SM CLR M07/M19 A3053 RMK AO2
KSAZ 211935Z AUTO 25005KT 10SM CLR M08/M19 A3053 RMK AO2
KSAZ 211915Z AUTO 24006KT 10SM CLR M08/M19 A3054 RMK AO2
KSAZ 211855Z AUTO 21009KT 10SM CLR M09/M19 A3054 RMK AO2